Aviation Digital Data Service (ADDS)

Output produced by METARs form (2314 UTC 15 February 2019)
found at http://www.aviationweather.gov/metar/data/
 
METAR text: RJTT 152300Z 35007KT 9999 FEW020 BKN/// 04/M02 Q1010 NOSIG RMK 1CU020 A2985
Conditions at: RJTT (TOKYO INTL AIRPO, JP) observed 2300 UTC 15 February 2019
Temperature: 4.0°C (39°F)
Dewpoint: -2.0°C (28°F) [RH = 65%]
Pressure (altimeter): 29.82 inches Hg (1010.0 mb)
Winds: from the N (350 degrees) at 8 MPH (7 knots; 3.6 m/s)
Visibility: 6 or more miles (10+ km)
Ceiling: at least 12,000 feet AGL
Clouds: few clouds at 2000 feet AGL
Weather: no significant weather observed at this time

METAR text: RJTT 152230Z 36008KT 9999 FEW020 SCT160 BKN/// 04/M02 Q1010 NOSIG
Conditions at: RJTT (TOKYO INTL AIRPO, JP) observed 2230 UTC 15 February 2019
Temperature: 4.0°C (39°F)
Dewpoint: -2.0°C (28°F) [RH = 65%]
Pressure (altimeter): 29.82 inches Hg (1010.0 mb)
Winds: from the N (360 degrees) at 9 MPH (8 knots; 4.1 m/s)
Visibility: 6 or more miles (10+ km)
Ceiling: at least 12,000 feet AGL
Clouds: few clouds at 2000 feet AGL
scattered clouds at 16000 feet AGL
Weather: no significant weather observed at this time

METAR text: RJTT 152200Z 02009KT 9999 FEW020 SCT160 BKN/// 04/M01 Q1010 NOSIG RMK 1CU020 3AC160 A2984
Conditions at: RJTT (TOKYO INTL AIRPO, JP) observed 2200 UTC 15 February 2019
Temperature: 4.0°C (39°F)
Dewpoint: -1.0°C (30°F) [RH = 70%]
Pressure (altimeter): 29.82 inches Hg (1010.0 mb)
Winds: from the NNE (20 degrees) at 10 MPH (9 knots; 4.6 m/s)
Visibility: 6 or more miles (10+ km)
Ceiling: at least 12,000 feet AGL
Clouds: few clouds at 2000 feet AGL
scattered clouds at 16000 feet AGL
Weather: no significant weather observed at this time

METAR text: RJTT 152130Z 02006KT 9999 FEW015 BKN160 BKN/// 04/M02 Q1010 NOSIG
Conditions at: RJTT (TOKYO INTL AIRPO, JP) observed 2130 UTC 15 February 2019
Temperature: 4.0°C (39°F)
Dewpoint: -2.0°C (28°F) [RH = 65%]
Pressure (altimeter): 29.82 inches Hg (1010.0 mb)
Winds: from the NNE (20 degrees) at 7 MPH (6 knots; 3.1 m/s)
Visibility: 6 or more miles (10+ km)
Ceiling: 16000 feet AGL
Clouds: few clouds at 1500 feet AGL
broken clouds at 16000 feet AGL
Weather: no significant weather observed at this time

METAR text: RJTT 152100Z 03006KT 9999 FEW015 BKN160 04/M01 Q1010 NOSIG RMK 1CU015 7AC160 A2984
Conditions at: RJTT (TOKYO INTL AIRPO, JP) observed 2100 UTC 15 February 2019
Temperature: 4.0°C (39°F)
Dewpoint: -1.0°C (30°F) [RH = 70%]
Pressure (altimeter): 29.82 inches Hg (1010.0 mb)
Winds: from the NNE (30 degrees) at 7 MPH (6 knots; 3.1 m/s)
Visibility: 6 or more miles (10+ km)
Ceiling: 16000 feet AGL
Clouds: few clouds at 1500 feet AGL
broken clouds at 16000 feet AGL
Weather: no significant weather observed at this time

METAR text: RJTT 152030Z 03008KT 9999 FEW015 BKN160 04/M01 Q1010 NOSIG RMK 1CU015 7AC160 A2985
Conditions at: RJTT (TOKYO INTL AIRPO, JP) observed 2030 UTC 15 February 2019
Temperature: 4.0°C (39°F)
Dewpoint: -1.0°C (30°F) [RH = 70%]
Pressure (altimeter): 29.82 inches Hg (1010.0 mb)
Winds: from the NNE (30 degrees) at 9 MPH (8 knots; 4.1 m/s)
Visibility: 6 or more miles (10+ km)
Ceiling: 16000 feet AGL
Clouds: few clouds at 1500 feet AGL
broken clouds at 16000 feet AGL
Weather: no significant weather observed at this time

METAR text: RJTT 152000Z 03005KT 9999 FEW015 BKN180 04/M01 Q1010 NOSIG RMK 1CU015 7AC180 A2984
Conditions at: RJTT (TOKYO INTL AIRPO, JP) observed 2000 UTC 15 February 2019
Temperature: 4.0°C (39°F)
Dewpoint: -1.0°C (30°F) [RH = 70%]
Pressure (altimeter): 29.82 inches Hg (1010.0 mb)
Winds: from the NNE (30 degrees) at 6 MPH (5 knots; 2.6 m/s)
Visibility: 6 or more miles (10+ km)
Ceiling: 18000 feet AGL
Clouds: few clouds at 1500 feet AGL
broken clouds at 18000 feet AGL
Weather: no significant weather observed at this time

METAR text: RJTT 151930Z 03006KT 9999 FEW015 BKN/// 04/M00 Q1011 NOSIG
Conditions at: RJTT (TOKYO INTL AIRPO, JP) observed 1930 UTC 15 February 2019
Temperature: 4.0°C (39°F)
Dewpoint: 0.0°C (32°F) [RH = 75%]
Pressure (altimeter): 29.85 inches Hg (1011.0 mb)
Winds: from the NNE (30 degrees) at 7 MPH (6 knots; 3.1 m/s)
Visibility: 6 or more miles (10+ km)
Ceiling: at least 12,000 feet AGL
Clouds: few clouds at 1500 feet AGL
Weather: no significant weather observed at this time

METAR text: RJTT 151900Z 06004KT 9999 FEW015 BKN170 04/M00 Q1011 BECMG 04005KT RMK 1CU015 7AC170 A2987
Conditions at: RJTT (TOKYO INTL AIRPO, JP) observed 1900 UTC 15 February 2019
Temperature: 4.0°C (39°F)
Dewpoint: 0.0°C (32°F) [RH = 75%]
Pressure (altimeter): 29.85 inches Hg (1011.0 mb)
Winds: from the ENE (60 degrees) at 5 MPH (4 knots; 2.1 m/s)
Visibility: 6 or more miles (10+ km)
Ceiling: 17000 feet AGL
Clouds: few clouds at 1500 feet AGL
broken clouds at 17000 feet AGL
Weather: no significant weather observed at this time

METAR text: RJTT 151830Z 05006KT 9999 FEW015 BKN160 04/M00 Q1011 NOSIG RMK 1CU015 7AC160 A2987
Conditions at: RJTT (TOKYO INTL AIRPO, JP) observed 1830 UTC 15 February 2019
Temperature: 4.0°C (39°F)
Dewpoint: 0.0°C (32°F) [RH = 75%]
Pressure (altimeter): 29.85 inches Hg (1011.0 mb)
Winds: from the NE (50 degrees) at 7 MPH (6 knots; 3.1 m/s)
Visibility: 6 or more miles (10+ km)
Ceiling: 16000 feet AGL
Clouds: few clouds at 1500 feet AGL
broken clouds at 16000 feet AGL
Weather: no significant weather observed at this time

METAR text: RJTT 151800Z 05006KT 9999 FEW015 BKN160 04/M01 Q1011 NOSIG RMK 1CU015 7AC160 A2987
Conditions at: RJTT (TOKYO INTL AIRPO, JP) observed 1800 UTC 15 February 2019
Temperature: 4.0°C (39°F)
Dewpoint: -1.0°C (30°F) [RH = 70%]
Pressure (altimeter): 29.85 inches Hg (1011.0 mb)
Winds: from the NE (50 degrees) at 7 MPH (6 knots; 3.1 m/s)
Visibility: 6 or more miles (10+ km)
Ceiling: 16000 feet AGL
Clouds: few clouds at 1500 feet AGL
broken clouds at 16000 feet AGL
Weather: no significant weather observed at this time

METAR text: RJTT 151730Z 05007KT 9999 FEW015 BKN170 05/M01 Q1012 NOSIG RMK 1CU015 7AC170 A2990
Conditions at: RJTT (TOKYO INTL AIRPO, JP) observed 1730 UTC 15 February 2019
Temperature: 5.0°C (41°F)
Dewpoint: -1.0°C (30°F) [RH = 65%]
Pressure (altimeter): 29.88 inches Hg (1012.0 mb)
Winds: from the NE (50 degrees) at 8 MPH (7 knots; 3.6 m/s)
Visibility: 6 or more miles (10+ km)
Ceiling: 17000 feet AGL
Clouds: few clouds at 1500 feet AGL
broken clouds at 17000 feet AGL
Weather: no significant weather observed at this time

METAR text: RJTT 151700Z 04005KT 9999 FEW015 BKN/// 05/M01 Q1013 NOSIG
Conditions at: RJTT (TOKYO INTL AIRPO, JP) observed 1700 UTC 15 February 2019
Temperature: 5.0°C (41°F)
Dewpoint: -1.0°C (30°F) [RH = 65%]
Pressure (altimeter): 29.91 inches Hg (1013.0 mb)
Winds: from the NE (40 degrees) at 6 MPH (5 knots; 2.6 m/s)
Visibility: 6 or more miles (10+ km)
Ceiling: at least 12,000 feet AGL
Clouds: few clouds at 1500 feet AGL
Weather: no significant weather observed at this time

METAR text: RJTT 151630Z 02005KT 9999 FEW015 BKN/// 05/M01 Q1013 NOSIG RMK 1CU015 A2994
Conditions at: RJTT (TOKYO INTL AIRPO, JP) observed 1630 UTC 15 February 2019
Temperature: 5.0°C (41°F)
Dewpoint: -1.0°C (30°F) [RH = 65%]
Pressure (altimeter): 29.91 inches Hg (1013.0 mb)
Winds: from the NNE (20 degrees) at 6 MPH (5 knots; 2.6 m/s)
Visibility: 6 or more miles (10+ km)
Ceiling: at least 12,000 feet AGL
Clouds: few clouds at 1500 feet AGL
Weather: no significant weather observed at this time

METAR text: RJTT 151600Z 02005KT 9999 FEW015 BKN/// 05/M01 Q1014 NOSIG RMK 1CU015 A2996
Conditions at: RJTT (TOKYO INTL AIRPO, JP) observed 1600 UTC 15 February 2019
Temperature: 5.0°C (41°F)
Dewpoint: -1.0°C (30°F) [RH = 65%]
Pressure (altimeter): 29.94 inches Hg (1014.0 mb)
Winds: from the NNE (20 degrees) at 6 MPH (5 knots; 2.6 m/s)
Visibility: 6 or more miles (10+ km)
Ceiling: at least 12,000 feet AGL
Clouds: few clouds at 1500 feet AGL
Weather: no significant weather observed at this time

METAR text: RJTT 151530Z 33003KT 280V350 9999 FEW015 BKN/// 05/M01 Q1014 NOSIG
Conditions at: RJTT (TOKYO INTL AIRPO, JP) observed 1530 UTC 15 February 2019
Temperature: 5.0°C (41°F)
Dewpoint: -1.0°C (30°F) [RH = 65%]
Pressure (altimeter): 29.94 inches Hg (1014.0 mb)
Winds: from the NNW (330 degrees) at 3 MPH (3 knots; 1.5 m/s)
Visibility: 6 or more miles (10+ km)
Ceiling: at least 12,000 feet AGL
Clouds: few clouds at 1500 feet AGL
Weather: no significant weather observed at this time

METAR text: RJTT 151500Z 34004KT 310V020 9999 FEW015 BKN/// 04/M01 Q1015 NOSIG RMK 1CU015 A2998
Conditions at: RJTT (TOKYO INTL AIRPO, JP) observed 1500 UTC 15 February 2019
Temperature: 4.0°C (39°F)
Dewpoint: -1.0°C (30°F) [RH = 70%]
Pressure (altimeter): 29.97 inches Hg (1015.0 mb)
Winds: from the NNW (340 degrees) at 5 MPH (4 knots; 2.1 m/s)
Visibility: 6 or more miles (10+ km)
Ceiling: at least 12,000 feet AGL
Clouds: few clouds at 1500 feet AGL
Weather: no significant weather observed at this time

METAR text: RJTT 151430Z 03006KT 9999 FEW015 BKN/// 05/M01 Q1015 NOSIG
Conditions at: RJTT (TOKYO INTL AIRPO, JP) observed 1430 UTC 15 February 2019
Temperature: 5.0°C (41°F)
Dewpoint: -1.0°C (30°F) [RH = 65%]
Pressure (altimeter): 29.97 inches Hg (1015.0 mb)
Winds: from the NNE (30 degrees) at 7 MPH (6 knots; 3.1 m/s)
Visibility: 6 or more miles (10+ km)
Ceiling: at least 12,000 feet AGL
Clouds: few clouds at 1500 feet AGL
Weather: no significant weather observed at this time

METAR text: RJTT 151400Z 05008KT 9999 FEW010 BKN/// 05/01 Q1015 NOSIG RMK 1CU010 A2998
Conditions at: RJTT (TOKYO INTL AIRPO, JP) observed 1400 UTC 15 February 2019
Temperature: 5.0°C (41°F)
Dewpoint: 1.0°C (34°F) [RH = 75%]
Pressure (altimeter): 29.97 inches Hg (1015.0 mb)
Winds: from the NE (50 degrees) at 9 MPH (8 knots; 4.1 m/s)
Visibility: 6 or more miles (10+ km)
Ceiling: at least 12,000 feet AGL
Clouds: few clouds at 1000 feet AGL
Weather: no significant weather observed at this time

METAR text: RJTT 151330Z 05008KT 9999 FEW010 BKN/// 04/01 Q1015 NOSIG
Conditions at: RJTT (TOKYO INTL AIRPO, JP) observed 1330 UTC 15 February 2019
Temperature: 4.0°C (39°F)
Dewpoint: 1.0°C (34°F) [RH = 81%]
Pressure (altimeter): 29.97 inches Hg (1015.0 mb)
Winds: from the NE (50 degrees) at 9 MPH (8 knots; 4.1 m/s)
Visibility: 6 or more miles (10+ km)
Ceiling: at least 12,000 feet AGL
Clouds: few clouds at 1000 feet AGL
Weather: no significant weather observed at this time

METAR text: RJTT 151300Z 03005KT 350V080 9999 FEW010 SCT015 BKN/// 05/01 Q1016 NOSIG RMK 1CU010 3SC015 A3003
Conditions at: RJTT (TOKYO INTL AIRPO, JP) observed 1300 UTC 15 February 2019
Temperature: 5.0°C (41°F)
Dewpoint: 1.0°C (34°F) [RH = 75%]
Pressure (altimeter): 30.00 inches Hg (1016.0 mb)
Winds: from the NNE (30 degrees) at 6 MPH (5 knots; 2.6 m/s)
Visibility: 6 or more miles (10+ km)
Ceiling: at least 12,000 feet AGL
Clouds: few clouds at 1000 feet AGL
scattered clouds at 1500 feet AGL
Weather: no significant weather observed at this time

METAR text: RJTT 151230Z 02006KT 9999 FEW010 SCT015 BKN/// 04/00 Q1017 NOSIG
Conditions at: RJTT (TOKYO INTL AIRPO, JP) observed 1230 UTC 15 February 2019
Temperature: 4.0°C (39°F)
Dewpoint: 0.0°C (32°F) [RH = 75%]
Pressure (altimeter): 30.03 inches Hg (1017.0 mb)
Winds: from the NNE (20 degrees) at 7 MPH (6 knots; 3.1 m/s)
Visibility: 6 or more miles (10+ km)
Ceiling: at least 12,000 feet AGL
Clouds: few clouds at 1000 feet AGL
scattered clouds at 1500 feet AGL
Weather: no significant weather observed at this time

METAR text: RJTT 151200Z 03008KT 9999 FEW010 SCT015 BKN/// 04/01 Q1017 NOSIG
Conditions at: RJTT (TOKYO INTL AIRPO, JP) observed 1200 UTC 15 February 2019
Temperature: 4.0°C (39°F)
Dewpoint: 1.0°C (34°F) [RH = 81%]
Pressure (altimeter): 30.03 inches Hg (1017.0 mb)
Winds: from the NNE (30 degrees) at 9 MPH (8 knots; 4.1 m/s)
Visibility: 6 or more miles (10+ km)
Ceiling: at least 12,000 feet AGL
Clouds: few clouds at 1000 feet AGL
scattered clouds at 1500 feet AGL
Weather: no significant weather observed at this time

METAR text: RJTT 151130Z 02010KT 9999 FEW015 SCT040 BKN/// 05/01 Q1017 NOSIG
Conditions at: RJTT (TOKYO INTL AIRPO, JP) observed 1130 UTC 15 February 2019
Temperature: 5.0°C (41°F)
Dewpoint: 1.0°C (34°F) [RH = 75%]
Pressure (altimeter): 30.03 inches Hg (1017.0 mb)
Winds: from the NNE (20 degrees) at 12 MPH (10 knots; 5.1 m/s)
Visibility: 6 or more miles (10+ km)
Ceiling: at least 12,000 feet AGL
Clouds: few clouds at 1500 feet AGL
scattered clouds at 4000 feet AGL
Weather: no significant weather observed at this time

METAR text: RJTT 151100Z 02007KT 9999 FEW010 SCT020 BKN045 05/02 Q1018 NOSIG RMK 1CU010 3SC020 6SC045 A3007
Conditions at: RJTT (TOKYO INTL AIRPO, JP) observed 1100 UTC 15 February 2019
Temperature: 5.0°C (41°F)
Dewpoint: 2.0°C (36°F) [RH = 81%]
Pressure (altimeter): 30.06 inches Hg (1018.0 mb)
Winds: from the NNE (20 degrees) at 8 MPH (7 knots; 3.6 m/s)
Visibility: 6 or more miles (10+ km)
Ceiling: 4500 feet AGL
Clouds: few clouds at 1000 feet AGL
scattered clouds at 2000 feet AGL
broken clouds at 4500 feet AGL
Weather: no significant weather observed at this time

METAR text: RJTT 151030Z 02008KT 9999 FEW010 BKN045 05/02 Q1018 NOSIG RMK 1CU010 6SC045 A3007
Conditions at: RJTT (TOKYO INTL AIRPO, JP) observed 1030 UTC 15 February 2019
Temperature: 5.0°C (41°F)
Dewpoint: 2.0°C (36°F) [RH = 81%]
Pressure (altimeter): 30.06 inches Hg (1018.0 mb)
Winds: from the NNE (20 degrees) at 9 MPH (8 knots; 4.1 m/s)
Visibility: 6 or more miles (10+ km)
Ceiling: 4500 feet AGL
Clouds: few clouds at 1000 feet AGL
broken clouds at 4500 feet AGL
Weather: no significant weather observed at this time

METAR text: RJTT 151000Z 03007KT 9999 FEW010 BKN045 05/02 Q1018 NOSIG RMK 1CU010 6SC045 A3008
Conditions at: RJTT (TOKYO INTL AIRPO, JP) observed 1000 UTC 15 February 2019
Temperature: 5.0°C (41°F)
Dewpoint: 2.0°C (36°F) [RH = 81%]
Pressure (altimeter): 30.06 inches Hg (1018.0 mb)
Winds: from the NNE (30 degrees) at 8 MPH (7 knots; 3.6 m/s)
Visibility: 6 or more miles (10+ km)
Ceiling: 4500 feet AGL
Clouds: few clouds at 1000 feet AGL
broken clouds at 4500 feet AGL
Weather: no significant weather observed at this time

METAR text: RJTT 150930Z 03006KT 9999 FEW010 SCT020 BKN045 05/02 Q1019 NOSIG RMK 1CU010 3SC020 7SC045 A3009
Conditions at: RJTT (TOKYO INTL AIRPO, JP) observed 0930 UTC 15 February 2019
Temperature: 5.0°C (41°F)
Dewpoint: 2.0°C (36°F) [RH = 81%]
Pressure (altimeter): 30.09 inches Hg (1019.0 mb)
Winds: from the NNE (30 degrees) at 7 MPH (6 knots; 3.1 m/s)
Visibility: 6 or more miles (10+ km)
Ceiling: 4500 feet AGL
Clouds: few clouds at 1000 feet AGL
scattered clouds at 2000 feet AGL
broken clouds at 4500 feet AGL
Weather: no significant weather observed at this time

METAR text: RJTT 150900Z 04005KT 9999 FEW010 SCT020 BKN040 05/02 Q1019 NOSIG RMK 1CU010 4SC020 7SC040 A3009
Conditions at: RJTT (TOKYO INTL AIRPO, JP) observed 0900 UTC 15 February 2019
Temperature: 5.0°C (41°F)
Dewpoint: 2.0°C (36°F) [RH = 81%]
Pressure (altimeter): 30.09 inches Hg (1019.0 mb)
Winds: from the NE (40 degrees) at 6 MPH (5 knots; 2.6 m/s)
Visibility: 6 or more miles (10+ km)
Ceiling: 4000 feet AGL
Clouds: few clouds at 1000 feet AGL
scattered clouds at 2000 feet AGL
broken clouds at 4000 feet AGL
Weather: no significant weather observed at this time

METAR text: RJTT 150830Z 07003KT 010V100 9999 FEW010 BKN020 05/02 Q1019 NOSIG RMK 1CU010 7SC020 A3010
Conditions at: RJTT (TOKYO INTL AIRPO, JP) observed 0830 UTC 15 February 2019
Temperature: 5.0°C (41°F)
Dewpoint: 2.0°C (36°F) [RH = 81%]
Pressure (altimeter): 30.09 inches Hg (1019.0 mb)
Winds: from the ENE (70 degrees) at 3 MPH (3 knots; 1.5 m/s)
Visibility: 6 or more miles (10+ km)
Ceiling: 2000 feet AGL
Clouds: few clouds at 1000 feet AGL
broken clouds at 2000 feet AGL
Weather: no significant weather observed at this time

METAR text: RJTT 150800Z 35005KT 9999 FEW010 BKN020 05/02 Q1019 BECMG 10005KT RMK 1ST010 7SC020 A3012
Conditions at: RJTT (TOKYO INTL AIRPO, JP) observed 0800 UTC 15 February 2019
Temperature: 5.0°C (41°F)
Dewpoint: 2.0°C (36°F) [RH = 81%]
Pressure (altimeter): 30.09 inches Hg (1019.0 mb)
Winds: from the N (350 degrees) at 6 MPH (5 knots; 2.6 m/s)
Visibility: 6 or more miles (10+ km)
Ceiling: 2000 feet AGL
Clouds: few clouds at 1000 feet AGL
broken clouds at 2000 feet AGL
Weather: no significant weather observed at this time

METAR text: RJTT 150730Z 01003KT 9999 FEW010 BKN030 05/02 Q1020 BECMG 10005KT
Conditions at: RJTT (TOKYO INTL AIRPO, JP) observed 0730 UTC 15 February 2019
Temperature: 5.0°C (41°F)
Dewpoint: 2.0°C (36°F) [RH = 81%]
Pressure (altimeter): 30.12 inches Hg (1020.0 mb)
Winds: from the N (10 degrees) at 3 MPH (3 knots; 1.5 m/s)
Visibility: 6 or more miles (10+ km)
Ceiling: 3000 feet AGL
Clouds: few clouds at 1000 feet AGL
broken clouds at 3000 feet AGL
Weather: no significant weather observed at this time

METAR text: RJTT 150700Z 01004KT 340V040 9999 FEW006 BKN030 04/02 Q1020 BECMG 10005KT RMK 1ST006 7SC030 A3013
Conditions at: RJTT (TOKYO INTL AIRPO, JP) observed 0700 UTC 15 February 2019
Temperature: 4.0°C (39°F)
Dewpoint: 2.0°C (36°F) [RH = 87%]
Pressure (altimeter): 30.12 inches Hg (1020.0 mb)
Winds: from the N (10 degrees) at 5 MPH (4 knots; 2.1 m/s)
Visibility: 6 or more miles (10+ km)
Ceiling: 3000 feet AGL
Clouds: few clouds at 600 feet AGL
broken clouds at 3000 feet AGL
Weather: no significant weather observed at this time

METAR text: RJTT 150630Z 03003KT 340V080 9999 FEW006 BKN030 04/02 Q1020 BECMG 10008KT RMK 1ST006 7SC030 A3014
Conditions at: RJTT (TOKYO INTL AIRPO, JP) observed 0630 UTC 15 February 2019
Temperature: 4.0°C (39°F)
Dewpoint: 2.0°C (36°F) [RH = 87%]
Pressure (altimeter): 30.12 inches Hg (1020.0 mb)
Winds: from the NNE (30 degrees) at 3 MPH (3 knots; 1.5 m/s)
Visibility: 6 or more miles (10+ km)
Ceiling: 3000 feet AGL
Clouds: few clouds at 600 feet AGL
broken clouds at 3000 feet AGL
Weather: no significant weather observed at this time

METAR text: RJTT 150600Z 07005KT 9999 FEW006 SCT008 BKN030 03/02 Q1021 NOSIG RMK 1ST006 3ST008 7SC030 A3015
Conditions at: RJTT (TOKYO INTL AIRPO, JP) observed 0600 UTC 15 February 2019
Temperature: 3.0°C (37°F)
Dewpoint: 2.0°C (36°F) [RH = 93%]
Pressure (altimeter): 30.15 inches Hg (1021.0 mb)
Winds: from the ENE (70 degrees) at 6 MPH (5 knots; 2.6 m/s)
Visibility: 6 or more miles (10+ km)
Ceiling: 3000 feet AGL
Clouds: few clouds at 600 feet AGL
scattered clouds at 800 feet AGL
broken clouds at 3000 feet AGL
Weather: no significant weather observed at this time

METAR text: RJTT 150530Z 09006KT 9999 FEW006 SCT008 BKN030 03/02 Q1021 NOSIG RMK 2ST006 4ST008 7SC030 A3016
Conditions at: RJTT (TOKYO INTL AIRPO, JP) observed 0530 UTC 15 February 2019
Temperature: 3.0°C (37°F)
Dewpoint: 2.0°C (36°F) [RH = 93%]
Pressure (altimeter): 30.15 inches Hg (1021.0 mb)
Winds: from the E (90 degrees) at 7 MPH (6 knots; 3.1 m/s)
Visibility: 6 or more miles (10+ km)
Ceiling: 3000 feet AGL
Clouds: few clouds at 600 feet AGL
scattered clouds at 800 feet AGL
broken clouds at 3000 feet AGL
Weather: no significant weather observed at this time

METAR text: RJTT 150500Z 10011KT 9999 VCSH FEW006 BKN030 04/02 Q1021 NOSIG RMK 2ST006 6SC030 A3017 P/FR
Conditions at: RJTT (TOKYO INTL AIRPO, JP) observed 0500 UTC 15 February 2019
Temperature: 4.0°C (39°F)
Dewpoint: 2.0°C (36°F) [RH = 87%]
Pressure (altimeter): 30.15 inches Hg (1021.0 mb)
Winds: from the E (100 degrees) at 13 MPH (11 knots; 5.7 m/s)
Visibility: 6 or more miles (10+ km)
Ceiling: 3000 feet AGL
Clouds: few clouds at 600 feet AGL
broken clouds at 3000 feet AGL
Weather: VCSH  (showers in vicinity)

METAR text: RJTT 150445Z 08007KT 9999 -RA FEW004 SCT007 BKN020 03/02 Q1022 RMK 1ST004 4ST007 6SC020 A3019 P/FR
Conditions at: RJTT (TOKYO INTL AIRPO, JP) observed 0445 UTC 15 February 2019
Temperature: 3.0°C (37°F)
Dewpoint: 2.0°C (36°F) [RH = 93%]
Pressure (altimeter): 30.18 inches Hg (1022.0 mb)
Winds: from the E (80 degrees) at 8 MPH (7 knots; 3.6 m/s)
Visibility: 6 or more miles (10+ km)
Ceiling: 2000 feet AGL
Clouds: few clouds at 400 feet AGL
scattered clouds at 700 feet AGL
broken clouds at 2000 feet AGL
Weather: -RA  (light rain)

METAR text: RJTT 150430Z 06005KT 9999 -RA FEW004 BKN006 BKN020 02/01 Q1023 BECMG 09005KT FEW005 BKN020
Conditions at: RJTT (TOKYO INTL AIRPO, JP) observed 0430 UTC 15 February 2019
Temperature: 2.0°C (36°F)
Dewpoint: 1.0°C (34°F) [RH = 93%]
Pressure (altimeter): 30.21 inches Hg (1023.0 mb)
Winds: from the ENE (60 degrees) at 6 MPH (5 knots; 2.6 m/s)
Visibility: 6 or more miles (10+ km)
Ceiling: 600 feet AGL
Clouds: few clouds at 400 feet AGL
broken clouds at 600 feet AGL
broken clouds at 2000 feet AGL
Weather: -RA  (light rain)

METAR text: RJTT 150410Z 04005KT 010V080 9999 -RASN FEW004 BKN005 BKN020 02/01 Q1024 RMK 1ST004 6ST005 7SC020 A3024
Conditions at: RJTT (TOKYO INTL AIRPO, JP) observed 0410 UTC 15 February 2019
Temperature: 2.0°C (36°F)
Dewpoint: 1.0°C (34°F) [RH = 93%]
Pressure (altimeter): 30.24 inches Hg (1024.0 mb)
Winds: from the NE (40 degrees) at 6 MPH (5 knots; 2.6 m/s)
Visibility: 6 or more miles (10+ km)
Ceiling: 500 feet AGL
Clouds: few clouds at 400 feet AGL
broken clouds at 500 feet AGL
broken clouds at 2000 feet AGL
Weather: -RA -SN  (light rain, light snow)

METAR text: RJTT 150400Z 04004KT 9999 -RASN FEW004 SCT005 BKN020 02/00 Q1024 BECMG 09005KT RMK 1ST004 4ST005 6SC020 A3024
Conditions at: RJTT (TOKYO INTL AIRPO, JP) observed 0400 UTC 15 February 2019
Temperature: 2.0°C (36°F)
Dewpoint: 0.0°C (32°F) [RH = 87%]
Pressure (altimeter): 30.24 inches Hg (1024.0 mb)
Winds: from the NE (40 degrees) at 5 MPH (4 knots; 2.1 m/s)
Visibility: 6 or more miles (10+ km)
Ceiling: 2000 feet AGL
Clouds: few clouds at 400 feet AGL
scattered clouds at 500 feet AGL
broken clouds at 2000 feet AGL
Weather: -RA -SN  (light rain, light snow)

METAR text: RJTT 150339Z 04003KT 360V070 5000 -SNRA BR FEW010 SCT020 BKN060 01/00 Q1024 RMK 1ST010 4SC020 7SC060 A3024 9999NW P/FR
Conditions at: RJTT (TOKYO INTL AIRPO, JP) observed 0339 UTC 15 February 2019
Temperature: 1.0°C (34°F)
Dewpoint: 0.0°C (32°F) [RH = 93%]
Pressure (altimeter): 30.24 inches Hg (1024.0 mb)
Winds: from the NE (40 degrees) at 3 MPH (3 knots; 1.5 m/s)
Visibility: 3 miles ( 5 km)
Ceiling: 6000 feet AGL
Clouds: few clouds at 1000 feet AGL
scattered clouds at 2000 feet AGL
broken clouds at 6000 feet AGL
Weather: -SN -RA BR  (light snow, light rain, mist)

METAR text: RJTT 150330Z 08004KT 3500 -SN BR FEW010 BKN020 01/M00 Q1024 NOSIG RMK 1ST010 7SC020 A3025 P/FR
Conditions at: RJTT (TOKYO INTL AIRPO, JP) observed 0330 UTC 15 February 2019
Temperature: 1.0°C (34°F)
Dewpoint: 0.0°C (32°F) [RH = 93%]
Pressure (altimeter): 30.24 inches Hg (1024.0 mb)
Winds: from the E (80 degrees) at 5 MPH (4 knots; 2.1 m/s)
Visibility: 2.17 miles (3.49 km)
Ceiling: 2000 feet AGL
Clouds: few clouds at 1000 feet AGL
broken clouds at 2000 feet AGL
Weather: -SN BR  (light snow, mist)

METAR text: RJTT 150300Z 05003KT 010V120 3000 -SN BR FEW015 BKN025 01/M01 Q1025 BECMG 09005KT
Conditions at: RJTT (TOKYO INTL AIRPO, JP) observed 0300 UTC 15 February 2019
Temperature: 1.0°C (34°F)
Dewpoint: -1.0°C (30°F) [RH = 86%]
Pressure (altimeter): 30.27 inches Hg (1025.0 mb)
Winds: from the NE (50 degrees) at 3 MPH (3 knots; 1.5 m/s)
Visibility: 1.86 miles (2.99 km)
Ceiling: 2500 feet AGL
Clouds: few clouds at 1500 feet AGL
broken clouds at 2500 feet AGL
Weather: -SN BR  (light snow, mist)

METAR text: RJTT 150248Z 04003KT 360V080 2300 -SN BR FEW015 BKN025 01/M01 Q1025 RMK 1SC015 7SC025 A3029
Conditions at: RJTT (TOKYO INTL AIRPO, JP) observed 0248 UTC 15 February 2019
Temperature: 1.0°C (34°F)
Dewpoint: -1.0°C (30°F) [RH = 86%]
Pressure (altimeter): 30.27 inches Hg (1025.0 mb)
Winds: from the NE (40 degrees) at 3 MPH (3 knots; 1.5 m/s)
Visibility: 1.43 miles (2.30 km)
Ceiling: 2500 feet AGL
Clouds: few clouds at 1500 feet AGL
broken clouds at 2500 feet AGL
Weather: -SN BR  (light snow, mist)

METAR text: RJTT 150230Z 08004KT 030V130 3000 -SN BR FEW015 BKN030 01/M03 Q1026 NOSIG RMK 1SC015 7SC030 A3030
Conditions at: RJTT (TOKYO INTL AIRPO, JP) observed 0230 UTC 15 February 2019
Temperature: 1.0°C (34°F)
Dewpoint: -3.0°C (27°F) [RH = 75%]
Pressure (altimeter): 30.30 inches Hg (1026.0 mb)
Winds: from the E (80 degrees) at 5 MPH (4 knots; 2.1 m/s)
Visibility: 1.86 miles (2.99 km)
Ceiling: 3000 feet AGL
Clouds: few clouds at 1500 feet AGL
broken clouds at 3000 feet AGL
Weather: -SN BR  (light snow, mist)

METAR text: RJTT 150221Z 08005KT 3000 -SN BR FEW015 BKN025 01/M02 Q1026 RMK 1SC015 7SC025 A3031
Conditions at: RJTT (TOKYO INTL AIRPO, JP) observed 0221 UTC 15 February 2019
Temperature: 1.0°C (34°F)
Dewpoint: -2.0°C (28°F) [RH = 80%]
Pressure (altimeter): 30.30 inches Hg (1026.0 mb)
Winds: from the E (80 degrees) at 6 MPH (5 knots; 2.6 m/s)
Visibility: 1.86 miles (2.99 km)
Ceiling: 2500 feet AGL
Clouds: few clouds at 1500 feet AGL
broken clouds at 2500 feet AGL
Weather: -SN BR  (light snow, mist)

METAR text: RJTT 150206Z 10006KT 060V140 4500 -SN FEW015 BKN025 01/M03 Q1026 RMK 1SC015 7SC025 A3032
Conditions at: RJTT (TOKYO INTL AIRPO, JP) observed 0206 UTC 15 February 2019
Temperature: 1.0°C (34°F)
Dewpoint: -3.0°C (27°F) [RH = 75%]
Pressure (altimeter): 30.30 inches Hg (1026.0 mb)
Winds: from the E (100 degrees) at 7 MPH (6 knots; 3.1 m/s)
Visibility: 2.80 miles (4.51 km)
Ceiling: 2500 feet AGL
Clouds: few clouds at 1500 feet AGL
broken clouds at 2500 feet AGL
Weather: -SN  (light snow)

METAR text: RJTT 150200Z 09007KT 050V120 8000 -SN FEW015 BKN025 02/M04 Q1026 TEMPO 4500 -SN RMK 1SC015 7SC025 A3032 3000SE-SW
Conditions at: RJTT (TOKYO INTL AIRPO, JP) observed 0200 UTC 15 February 2019
Temperature: 2.0°C (36°F)
Dewpoint: -4.0°C (25°F) [RH = 64%]
Pressure (altimeter): 30.30 inches Hg (1026.0 mb)
Winds: from the E (90 degrees) at 8 MPH (7 knots; 3.6 m/s)
Visibility: 5 miles ( 8 km)
Ceiling: 2500 feet AGL
Clouds: few clouds at 1500 feet AGL
broken clouds at 2500 feet AGL
Weather: -SN  (light snow)

METAR text: RJTT 150130Z 04004KT 360V090 9999 -SN FEW025 BKN030 03/M08 Q1026 NOSIG RMK 1CU025 7SC030 A3032
Conditions at: RJTT (TOKYO INTL AIRPO, JP) observed 0130 UTC 15 February 2019
Temperature: 3.0°C (37°F)
Dewpoint: -8.0°C (18°F) [RH = 44%]
Pressure (altimeter): 30.30 inches Hg (1026.0 mb)
Winds: from the NE (40 degrees) at 5 MPH (4 knots; 2.1 m/s)
Visibility: 6 or more miles (10+ km)
Ceiling: 3000 feet AGL
Clouds: few clouds at 2500 feet AGL
broken clouds at 3000 feet AGL
Weather: -SN  (light snow)

METAR text: RJTT 150100Z 03005KT 9999 VCSH FEW030 BKN040 03/M08 Q1026 NOSIG RMK 1CU030 7SC040 A3032
Conditions at: RJTT (TOKYO INTL AIRPO, JP) observed 0100 UTC 15 February 2019
Temperature: 3.0°C (37°F)
Dewpoint: -8.0°C (18°F) [RH = 44%]
Pressure (altimeter): 30.30 inches Hg (1026.0 mb)
Winds: from the NNE (30 degrees) at 6 MPH (5 knots; 2.6 m/s)
Visibility: 6 or more miles (10+ km)
Ceiling: 4000 feet AGL
Clouds: few clouds at 3000 feet AGL
broken clouds at 4000 feet AGL
Weather: VCSH  (showers in vicinity)

METAR text: RJTT 150030Z 04007KT 9999 FEW030 BKN045 03/M08 Q1026 NOSIG RMK 1CU030 7SC045 A3031
Conditions at: RJTT (TOKYO INTL AIRPO, JP) observed 0030 UTC 15 February 2019
Temperature: 3.0°C (37°F)
Dewpoint: -8.0°C (18°F) [RH = 44%]
Pressure (altimeter): 30.30 inches Hg (1026.0 mb)
Winds: from the NE (40 degrees) at 8 MPH (7 knots; 3.6 m/s)
Visibility: 6 or more miles (10+ km)
Ceiling: 4500 feet AGL
Clouds: few clouds at 3000 feet AGL
broken clouds at 4500 feet AGL
Weather: no significant weather observed at this time

METAR text: RJTT 150000Z 01005KT 9999 FEW030 BKN045 BKN060 03/M08 Q1027 NOSIG RMK 1CU030 6SC045 7SC060 A3033
Conditions at: RJTT (TOKYO INTL AIRPO, JP) observed 0000 UTC 15 February 2019
Temperature: 3.0°C (37°F)
Dewpoint: -8.0°C (18°F) [RH = 44%]
Pressure (altimeter): 30.32 inches Hg (1027.0 mb)
Winds: from the N (10 degrees) at 6 MPH (5 knots; 2.6 m/s)
Visibility: 6 or more miles (10+ km)
Ceiling: 4500 feet AGL
Clouds: few clouds at 3000 feet AGL
broken clouds at 4500 feet AGL
broken clouds at 6000 feet AGL
Weather: no significant weather observed at this time

METAR text: RJTT 142330Z 36005KT 9999 FEW030 BKN050 03/M08 Q1027 NOSIG RMK 1CU030 7SC050 A3034
Conditions at: RJTT (TOKYO INTL AIRPO, JP) observed 2330 UTC 14 February 2019
Temperature: 3.0°C (37°F)
Dewpoint: -8.0°C (18°F) [RH = 44%]
Pressure (altimeter): 30.32 inches Hg (1027.0 mb)
Winds: from the N (360 degrees) at 6 MPH (5 knots; 2.6 m/s)
Visibility: 6 or more miles (10+ km)
Ceiling: 5000 feet AGL
Clouds: few clouds at 3000 feet AGL
broken clouds at 5000 feet AGL
Weather: no significant weather observed at this time

METAR text: RJTT 142300Z 02005KT 9999 FEW030 BKN050 BKN070 03/M08 Q1027 NOSIG RMK 1CU030 6SC050 7AC070 A3034
Conditions at: RJTT (TOKYO INTL AIRPO, JP) observed 2300 UTC 14 February 2019
Temperature: 3.0°C (37°F)
Dewpoint: -8.0°C (18°F) [RH = 44%]
Pressure (altimeter): 30.32 inches Hg (1027.0 mb)
Winds: from the NNE (20 degrees) at 6 MPH (5 knots; 2.6 m/s)
Visibility: 6 or more miles (10+ km)
Ceiling: 5000 feet AGL
Clouds: few clouds at 3000 feet AGL
broken clouds at 5000 feet AGL
broken clouds at 7000 feet AGL
Weather: no significant weather observed at this time

METAR text: RJTT 142230Z 03006KT 9999 FEW030 SCT045 BKN070 02/M08 Q1027 NOSIG RMK 1CU030 3SC045 6AC070 A3033
Conditions at: RJTT (TOKYO INTL AIRPO, JP) observed 2230 UTC 14 February 2019
Temperature: 2.0°C (36°F)
Dewpoint: -8.0°C (18°F) [RH = 47%]
Pressure (altimeter): 30.32 inches Hg (1027.0 mb)
Winds: from the NNE (30 degrees) at 7 MPH (6 knots; 3.1 m/s)
Visibility: 6 or more miles (10+ km)
Ceiling: 7000 feet AGL
Clouds: few clouds at 3000 feet AGL
scattered clouds at 4500 feet AGL
broken clouds at 7000 feet AGL
Weather: no significant weather observed at this time

METAR text: RJTT 142200Z 04006KT 010V080 9999 FEW040 BKN045 02/M08 Q1026 NOSIG RMK 1SC040 7SC045 A3032
Conditions at: RJTT (TOKYO INTL AIRPO, JP) observed 2200 UTC 14 February 2019
Temperature: 2.0°C (36°F)
Dewpoint: -8.0°C (18°F) [RH = 47%]
Pressure (altimeter): 30.30 inches Hg (1026.0 mb)
Winds: from the NE (40 degrees) at 7 MPH (6 knots; 3.1 m/s)
Visibility: 6 or more miles (10+ km)
Ceiling: 4500 feet AGL
Clouds: few clouds at 4000 feet AGL
broken clouds at 4500 feet AGL
Weather: no significant weather observed at this time

METAR text: RJTT 142130Z 04008KT 9999 FEW040 BKN045 BKN070 02/M08 Q1027 NOSIG RMK 1SC040 5SC045 7AC070 A3033
Conditions at: RJTT (TOKYO INTL AIRPO, JP) observed 2130 UTC 14 February 2019
Temperature: 2.0°C (36°F)
Dewpoint: -8.0°C (18°F) [RH = 47%]
Pressure (altimeter): 30.32 inches Hg (1027.0 mb)
Winds: from the NE (40 degrees) at 9 MPH (8 knots; 4.1 m/s)
Visibility: 6 or more miles (10+ km)
Ceiling: 4500 feet AGL
Clouds: few clouds at 4000 feet AGL
broken clouds at 4500 feet AGL
broken clouds at 7000 feet AGL
Weather: no significant weather observed at this time

METAR text: RJTT 142100Z 04010KT 9999 FEW040 SCT045 BKN070 02/M07 Q1026 NOSIG RMK 1SC040 3SC045 7AC070 A3032
Conditions at: RJTT (TOKYO INTL AIRPO, JP) observed 2100 UTC 14 February 2019
Temperature: 2.0°C (36°F)
Dewpoint: -7.0°C (19°F) [RH = 51%]
Pressure (altimeter): 30.30 inches Hg (1026.0 mb)
Winds: from the NE (40 degrees) at 12 MPH (10 knots; 5.1 m/s)
Visibility: 6 or more miles (10+ km)
Ceiling: 7000 feet AGL
Clouds: few clouds at 4000 feet AGL
scattered clouds at 4500 feet AGL
broken clouds at 7000 feet AGL
Weather: no significant weather observed at this time

METAR text: RJTT 142030Z 01012KT 9999 FEW040 BKN070 03/M07 Q1027 NOSIG RMK 1SC040 7AC070 A3033
Conditions at: RJTT (TOKYO INTL AIRPO, JP) observed 2030 UTC 14 February 2019
Temperature: 3.0°C (37°F)
Dewpoint: -7.0°C (19°F) [RH = 48%]
Pressure (altimeter): 30.32 inches Hg (1027.0 mb)
Winds: from the N (10 degrees) at 14 MPH (12 knots; 6.2 m/s)
Visibility: 6 or more miles (10+ km)
Ceiling: 7000 feet AGL
Clouds: few clouds at 4000 feet AGL
broken clouds at 7000 feet AGL
Weather: no significant weather observed at this time

METAR text: RJTT 142000Z 01013KT 9999 FEW030 SCT060 BKN/// 03/M06 Q1026 NOSIG RMK 1CU030 3SC060 A3031
Conditions at: RJTT (TOKYO INTL AIRPO, JP) observed 2000 UTC 14 February 2019
Temperature: 3.0°C (37°F)
Dewpoint: -6.0°C (21°F) [RH = 52%]
Pressure (altimeter): 30.30 inches Hg (1026.0 mb)
Winds: from the N (10 degrees) at 15 MPH (13 knots; 6.7 m/s)
Visibility: 6 or more miles (10+ km)
Ceiling: at least 12,000 feet AGL
Clouds: few clouds at 3000 feet AGL
scattered clouds at 6000 feet AGL
Weather: no significant weather observed at this time

METAR text: RJTT 141930Z 35011KT 9999 FEW030 SCT045 BKN060 03/M06 Q1027 NOSIG RMK 1CU030 3SC045 6SC060 A3034
Conditions at: RJTT (TOKYO INTL AIRPO, JP) observed 1930 UTC 14 February 2019
Temperature: 3.0°C (37°F)
Dewpoint: -6.0°C (21°F) [RH = 52%]
Pressure (altimeter): 30.32 inches Hg (1027.0 mb)
Winds: from the N (350 degrees) at 13 MPH (11 knots; 5.7 m/s)
Visibility: 6 or more miles (10+ km)
Ceiling: 6000 feet AGL
Clouds: few clouds at 3000 feet AGL
scattered clouds at 4500 feet AGL
broken clouds at 6000 feet AGL
Weather: no significant weather observed at this time

METAR text: RJTT 141900Z 34010KT 9999 FEW040 BKN/// 02/M07 Q1026 NOSIG RMK 1SC040 A3032
Conditions at: RJTT (TOKYO INTL AIRPO, JP) observed 1900 UTC 14 February 2019
Temperature: 2.0°C (36°F)
Dewpoint: -7.0°C (19°F) [RH = 51%]
Pressure (altimeter): 30.30 inches Hg (1026.0 mb)
Winds: from the NNW (340 degrees) at 12 MPH (10 knots; 5.1 m/s)
Visibility: 6 or more miles (10+ km)
Ceiling: at least 12,000 feet AGL
Clouds: few clouds at 4000 feet AGL
Weather: no significant weather observed at this time

METAR text: RJTT 141830Z 35010KT 9999 FEW040 BKN050 03/M06 Q1026 NOSIG RMK 1SC040 5SC050 A3031
Conditions at: RJTT (TOKYO INTL AIRPO, JP) observed 1830 UTC 14 February 2019
Temperature: 3.0°C (37°F)
Dewpoint: -6.0°C (21°F) [RH = 52%]
Pressure (altimeter): 30.30 inches Hg (1026.0 mb)
Winds: from the N (350 degrees) at 12 MPH (10 knots; 5.1 m/s)
Visibility: 6 or more miles (10+ km)
Ceiling: 5000 feet AGL
Clouds: few clouds at 4000 feet AGL
broken clouds at 5000 feet AGL
Weather: no significant weather observed at this time

METAR text: RJTT 141800Z 36009KT 9999 FEW040 BKN050 03/M07 Q1026 NOSIG RMK 1SC040 6SC050 A3031
Conditions at: RJTT (TOKYO INTL AIRPO, JP) observed 1800 UTC 14 February 2019
Temperature: 3.0°C (37°F)
Dewpoint: -7.0°C (19°F) [RH = 48%]
Pressure (altimeter): 30.30 inches Hg (1026.0 mb)
Winds: from the N (360 degrees) at 10 MPH (9 knots; 4.6 m/s)
Visibility: 6 or more miles (10+ km)
Ceiling: 5000 feet AGL
Clouds: few clouds at 4000 feet AGL
broken clouds at 5000 feet AGL
Weather: no significant weather observed at this time

METAR text: RJTT 141730Z 02010KT 9999 FEW040 BKN050 03/M06 Q1026 NOSIG RMK 1SC040 6SC050 A3031
Conditions at: RJTT (TOKYO INTL AIRPO, JP) observed 1730 UTC 14 February 2019
Temperature: 3.0°C (37°F)
Dewpoint: -6.0°C (21°F) [RH = 52%]
Pressure (altimeter): 30.30 inches Hg (1026.0 mb)
Winds: from the NNE (20 degrees) at 12 MPH (10 knots; 5.1 m/s)
Visibility: 6 or more miles (10+ km)
Ceiling: 5000 feet AGL
Clouds: few clouds at 4000 feet AGL
broken clouds at 5000 feet AGL
Weather: no significant weather observed at this time

METAR text: RJTT 141700Z 02011KT 330V030 9999 FEW040 03/M06 Q1026 NOSIG RMK 1SC040 A3031
Conditions at: RJTT (TOKYO INTL AIRPO, JP) observed 1700 UTC 14 February 2019
Temperature: 3.0°C (37°F)
Dewpoint: -6.0°C (21°F) [RH = 52%]
Pressure (altimeter): 30.30 inches Hg (1026.0 mb)
Winds: from the NNE (20 degrees) at 13 MPH (11 knots; 5.7 m/s)
Visibility: 6 or more miles (10+ km)
Ceiling: at least 12,000 feet AGL
Clouds: few clouds at 4000 feet AGL
Weather: no significant weather observed at this time

METAR text: RJTT 141630Z 02013KT 9999 FEW040 BKN050 03/M06 Q1026 NOSIG RMK 1SC040 6SC050 A3032
Conditions at: RJTT (TOKYO INTL AIRPO, JP) observed 1630 UTC 14 February 2019
Temperature: 3.0°C (37°F)
Dewpoint: -6.0°C (21°F) [RH = 52%]
Pressure (altimeter): 30.30 inches Hg (1026.0 mb)
Winds: from the NNE (20 degrees) at 15 MPH (13 knots; 6.7 m/s)
Visibility: 6 or more miles (10+ km)
Ceiling: 5000 feet AGL
Clouds: few clouds at 4000 feet AGL
broken clouds at 5000 feet AGL
Weather: no significant weather observed at this time

METAR text: RJTT 141600Z 36010KT 9999 FEW040 BKN050 04/M06 Q1027 NOSIG RMK 1SC040 7SC050 A3034
Conditions at: RJTT (TOKYO INTL AIRPO, JP) observed 1600 UTC 14 February 2019
Temperature: 4.0°C (39°F)
Dewpoint: -6.0°C (21°F) [RH = 48%]
Pressure (altimeter): 30.32 inches Hg (1027.0 mb)
Winds: from the N (360 degrees) at 12 MPH (10 knots; 5.1 m/s)
Visibility: 6 or more miles (10+ km)
Ceiling: 5000 feet AGL
Clouds: few clouds at 4000 feet AGL
broken clouds at 5000 feet AGL
Weather: no significant weather observed at this time

METAR text: RJTT 141530Z 36011KT 9999 FEW040 BKN050 04/M07 Q1027 NOSIG RMK 1SC040 6SC050 A3035
Conditions at: RJTT (TOKYO INTL AIRPO, JP) observed 1530 UTC 14 February 2019
Temperature: 4.0°C (39°F)
Dewpoint: -7.0°C (19°F) [RH = 44%]
Pressure (altimeter): 30.32 inches Hg (1027.0 mb)
Winds: from the N (360 degrees) at 13 MPH (11 knots; 5.7 m/s)
Visibility: 6 or more miles (10+ km)
Ceiling: 5000 feet AGL
Clouds: few clouds at 4000 feet AGL
broken clouds at 5000 feet AGL
Weather: no significant weather observed at this time

METAR text: RJTT 141500Z 01011KT 9999 FEW040 BKN050 04/M07 Q1027 NOSIG RMK 1SC040 5SC050 A3035
Conditions at: RJTT (TOKYO INTL AIRPO, JP) observed 1500 UTC 14 February 2019
Temperature: 4.0°C (39°F)
Dewpoint: -7.0°C (19°F) [RH = 44%]
Pressure (altimeter): 30.32 inches Hg (1027.0 mb)
Winds: from the N (10 degrees) at 13 MPH (11 knots; 5.7 m/s)
Visibility: 6 or more miles (10+ km)
Ceiling: 5000 feet AGL
Clouds: few clouds at 4000 feet AGL
broken clouds at 5000 feet AGL
Weather: no significant weather observed at this time

METAR text: RJTT 141430Z 36013KT 9999 FEW040 BKN050 04/M07 Q1027 NOSIG RMK 1SC040 7SC050 A3035
Conditions at: RJTT (TOKYO INTL AIRPO, JP) observed 1430 UTC 14 February 2019
Temperature: 4.0°C (39°F)
Dewpoint: -7.0°C (19°F) [RH = 44%]
Pressure (altimeter): 30.32 inches Hg (1027.0 mb)
Winds: from the N (360 degrees) at 15 MPH (13 knots; 6.7 m/s)
Visibility: 6 or more miles (10+ km)
Ceiling: 5000 feet AGL
Clouds: few clouds at 4000 feet AGL
broken clouds at 5000 feet AGL
Weather: no significant weather observed at this time

METAR text: RJTT 141400Z 36015KT 9999 FEW050 BKN070 04/M09 Q1028 NOSIG RMK 1SC050 6AC070 A3037
Conditions at: RJTT (TOKYO INTL AIRPO, JP) observed 1400 UTC 14 February 2019
Temperature: 4.0°C (39°F)
Dewpoint: -9.0°C (16°F) [RH = 38%]
Pressure (altimeter): 30.35 inches Hg (1028.0 mb)
Winds: from the N (360 degrees) at 17 MPH (15 knots; 7.7 m/s)
Visibility: 6 or more miles (10+ km)
Ceiling: 7000 feet AGL
Clouds: few clouds at 5000 feet AGL
broken clouds at 7000 feet AGL
Weather: no significant weather observed at this time

METAR text: RJTT 141330Z 36017KT 9999 FEW050 SCT070 05/M07 Q1027 NOSIG RMK 1SC050 3AC070 A3035
Conditions at: RJTT (TOKYO INTL AIRPO, JP) observed 1330 UTC 14 February 2019
Temperature: 5.0°C (41°F)
Dewpoint: -7.0°C (19°F) [RH = 41%]
Pressure (altimeter): 30.32 inches Hg (1027.0 mb)
Winds: from the N (360 degrees) at 20 MPH (17 knots; 8.7 m/s)
Visibility: 6 or more miles (10+ km)
Ceiling: at least 12,000 feet AGL
Clouds: few clouds at 5000 feet AGL
scattered clouds at 7000 feet AGL
Weather: no significant weather observed at this time

METAR text: RJTT 141300Z 35015KT 9999 FEW050 BKN070 05/M08 Q1027 NOSIG RMK 1SC050 5AC070 A3034
Conditions at: RJTT (TOKYO INTL AIRPO, JP) observed 1300 UTC 14 February 2019
Temperature: 5.0°C (41°F)
Dewpoint: -8.0°C (18°F) [RH = 38%]
Pressure (altimeter): 30.32 inches Hg (1027.0 mb)
Winds: from the N (350 degrees) at 17 MPH (15 knots; 7.7 m/s)
Visibility: 6 or more miles (10+ km)
Ceiling: 7000 feet AGL
Clouds: few clouds at 5000 feet AGL
broken clouds at 7000 feet AGL
Weather: no significant weather observed at this time

METAR text: RJTT 141230Z 35014KT 9999 FEW050 SCT070 05/M08 Q1026 NOSIG RMK 1SC050 4AC070 A3032
Conditions at: RJTT (TOKYO INTL AIRPO, JP) observed 1230 UTC 14 February 2019
Temperature: 5.0°C (41°F)
Dewpoint: -8.0°C (18°F) [RH = 38%]
Pressure (altimeter): 30.30 inches Hg (1026.0 mb)
Winds: from the N (350 degrees) at 16 MPH (14 knots; 7.2 m/s)
Visibility: 6 or more miles (10+ km)
Ceiling: at least 12,000 feet AGL
Clouds: few clouds at 5000 feet AGL
scattered clouds at 7000 feet AGL
Weather: no significant weather observed at this time

METAR text: RJTT 141200Z 33014KT 9999 FEW050 04/M11 Q1027 NOSIG RMK 1SC050 A3033
Conditions at: RJTT (TOKYO INTL AIRPO, JP) observed 1200 UTC 14 February 2019
Temperature: 4.0°C (39°F)
Dewpoint: -11.0°C (12°F) [RH = 32%]
Pressure (altimeter): 30.32 inches Hg (1027.0 mb)
Winds: from the NNW (330 degrees) at 16 MPH (14 knots; 7.2 m/s)
Visibility: 6 or more miles (10+ km)
Ceiling: at least 12,000 feet AGL
Clouds: few clouds at 5000 feet AGL
Weather: no significant weather observed at this time

METAR text: RJTT 141130Z 33015KT 9999 FEW050 BKN/// 04/M10 Q1026 NOSIG
Conditions at: RJTT (TOKYO INTL AIRPO, JP) observed 1130 UTC 14 February 2019
Temperature: 4.0°C (39°F)
Dewpoint: -10.0°C (14°F) [RH = 35%]
Pressure (altimeter): 30.30 inches Hg (1026.0 mb)
Winds: from the NNW (330 degrees) at 17 MPH (15 knots; 7.7 m/s)
Visibility: 6 or more miles (10+ km)
Ceiling: at least 12,000 feet AGL
Clouds: few clouds at 5000 feet AGL
Weather: no significant weather observed at this time

Forecast for: RJTT (TOKYO INTL AIRPO, JP)
Text: TAF RJTT 151705Z 1518/1700 36006KT 9999 FEW030
Forecast period: 1800 UTC 15 February 2019 to 0600 UTC 16 February 2019
Forecast type: FROM: standard forecast or significant change
Winds: from the N (360 degrees) at 7 MPH (6 knots; 3.1 m/s)
Visibility: 6 or more miles 10+ km)
Ceiling: at least 12,000 feet AGL
Clouds: few clouds at 3000 feet AGL
Weather: no significant weather forecast for this period
Text: BECMG 1606/1609 34016KT
Forecast period: 0600 UTC 16 February 2019 to 0000 UTC 17 February 2019
Forecast type: BECOMING: Conditions expected to become as follows by 0900 UTC 16 February 2019
Winds: from the NNW (340 degrees) at 18 MPH (16 knots; 8.2 m/s)
Visibility: 6 or more miles 10+ km)
Ceiling: at least 12,000 feet AGL
Clouds: few clouds at 3000 feet AGL
Weather: no significant weather forecast for this period